sensor_id;sensor_type;location;lat;lon;timestamp;temperature;humidity
49549;DHT22;35450;44.518;7.466;2024-03-07T00:01:47;7.60;75.90
49549;DHT22;35450;44.518;7.466;2024-03-07T00:04:51;7.60;74.90
49549;DHT22;35450;44.518;7.466;2024-03-07T00:07:55;7.60;74.20
49549;DHT22;35450;44.518;7.466;2024-03-07T00:10:59;7.70;74.20
49549;DHT22;35450;44.518;7.466;2024-03-07T00:14:03;7.70;74.50
49549;DHT22;35450;44.518;7.466;2024-03-07T00:17:08;7.70;74.30
49549;DHT22;35450;44.518;7.466;2024-03-07T00:20:12;7.70;75.40
49549;DHT22;35450;44.518;7.466;2024-03-07T00:23:19;7.60;74.90
49549;DHT22;35450;44.518;7.466;2024-03-07T00:26:23;7.70;74.30
49549;DHT22;35450;44.518;7.466;2024-03-07T00:29:26;7.70;75.70
49549;DHT22;35450;44.518;7.466;2024-03-07T00:32:31;7.90;75.60
49549;DHT22;35450;44.518;7.466;2024-03-07T00:35:38;7.90;75.40
49549;DHT22;35450;44.518;7.466;2024-03-07T00:38:43;8.00;76.10
49549;DHT22;35450;44.518;7.466;2024-03-07T00:41:47;7.90;77.00
49549;DHT22;35450;44.518;7.466;2024-03-07T00:44:51;7.80;78.80
49549;DHT22;35450;44.518;7.466;2024-03-07T00:47:55;7.70;78.90
49549;DHT22;35450;44.518;7.466;2024-03-07T00:50:59;7.60;76.00
49549;DHT22;35450;44.518;7.466;2024-03-07T00:54:02;7.60;76.60
49549;DHT22;35450;44.518;7.466;2024-03-07T00:57:07;7.60;76.90
49549;DHT22;35450;44.518;7.466;2024-03-07T01:00:12;7.50;79.80
49549;DHT22;35450;44.518;7.466;2024-03-07T01:03:17;7.50;79.00
49549;DHT22;35450;44.518;7.466;2024-03-07T01:06:21;7.40;80.70
49549;DHT22;35450;44.518;7.466;2024-03-07T01:09:26;7.30;79.70
49549;DHT22;35450;44.518;7.466;2024-03-07T01:12:32;7.10;80.80
49549;DHT22;35450;44.518;7.466;2024-03-07T01:15:38;6.90;82.20
49549;DHT22;35450;44.518;7.466;2024-03-07T01:18:42;6.80;82.10
49549;DHT22;35450;44.518;7.466;2024-03-07T01:21:45;6.80;80.30
49549;DHT22;35450;44.518;7.466;2024-03-07T01:24:49;6.90;78.30
49549;DHT22;35450;44.518;7.466;2024-03-07T01:27:54;6.90;78.00
49549;DHT22;35450;44.518;7.466;2024-03-07T01:30:59;7.00;78.70
49549;DHT22;35450;44.518;7.466;2024-03-07T01:34:03;7.00;76.50
49549;DHT22;35450;44.518;7.466;2024-03-07T01:37:07;7.10;75.70
49549;DHT22;35450;44.518;7.466;2024-03-07T01:40:12;7.00;76.00
49549;DHT22;35450;44.518;7.466;2024-03-07T01:43:17;7.00;76.80
49549;DHT22;35450;44.518;7.466;2024-03-07T01:46:22;7.00;76.70
49549;DHT22;35450;44.518;7.466;2024-03-07T01:49:26;7.00;76.00
49549;DHT22;35450;44.518;7.466;2024-03-07T01:52:30;6.90;77.60
49549;DHT22;35450;44.518;7.466;2024-03-07T01:55:35;6.80;78.00
49549;DHT22;35450;44.518;7.466;2024-03-07T01:58:41;6.80;76.60
49549;DHT22;35450;44.518;7.466;2024-03-07T02:01:45;6.90;75.90
49549;DHT22;35450;44.518;7.466;2024-03-07T02:04:50;7.00;76.50
49549;DHT22;35450;44.518;7.466;2024-03-07T02:07:54;6.90;76.70
49549;DHT22;35450;44.518;7.466;2024-03-07T02:10:58;6.90;76.70
49549;DHT22;35450;44.518;7.466;2024-03-07T02:14:02;6.90;75.80
49549;DHT22;35450;44.518;7.466;2024-03-07T02:17:07;6.90;76.00
49549;DHT22;35450;44.518;7.466;2024-03-07T02:20:11;6.90;75.40
49549;DHT22;35450;44.518;7.466;2024-03-07T02:23:16;6.70;76.40
49549;DHT22;35450;44.518;7.466;2024-03-07T02:26:20;6.60;76.20
49549;DHT22;35450;44.518;7.466;2024-03-07T02:29:24;6.70;73.50
49549;DHT22;35450;44.518;7.466;2024-03-07T02:32:28;6.70;74.90
49549;DHT22;35450;44.518;7.466;2024-03-07T02:35:36;6.80;76.20
49549;DHT22;35450;44.518;7.466;2024-03-07T02:38:40;6.80;78.00
49549;DHT22;35450;44.518;7.466;2024-03-07T02:41:44;6.70;80.20
49549;DHT22;35450;44.518;7.466;2024-03-07T02:44:47;6.90;78.80
49549;DHT22;35450;44.518;7.466;2024-03-07T02:47:51;6.70;78.10
49549;DHT22;35450;44.518;7.466;2024-03-07T02:50:57;6.60;78.50
49549;DHT22;35450;44.518;7.466;2024-03-07T02:54:01;6.60;77.70
49549;DHT22;35450;44.518;7.466;2024-03-07T02:57:06;6.50;78.40
49549;DHT22;35450;44.518;7.466;2024-03-07T03:00:11;6.80;75.00
49549;DHT22;35450;44.518;7.466;2024-03-07T03:03:24;6.80;75.20
49549;DHT22;35450;44.518;7.466;2024-03-07T03:06:28;6.80;76.40
49549;DHT22;35450;44.518;7.466;2024-03-07T03:09:32;6.80;78.20
49549;DHT22;35450;44.518;7.466;2024-03-07T03:12:37;6.90;74.90
49549;DHT22;35450;44.518;7.466;2024-03-07T03:15:42;7.00;77.20
49549;DHT22;35450;44.518;7.466;2024-03-07T03:18:46;6.90;75.20
49549;DHT22;35450;44.518;7.466;2024-03-07T03:21:52;6.90;76.10
49549;DHT22;35450;44.518;7.466;2024-03-07T03:24:56;6.80;76.20
49549;DHT22;35450;44.518;7.466;2024-03-07T03:28:00;6.80;75.20
49549;DHT22;35450;44.518;7.466;2024-03-07T03:31:04;6.80;75.20
49549;DHT22;35450;44.518;7.466;2024-03-07T03:34:08;6.70;76.60
49549;DHT22;35450;44.518;7.466;2024-03-07T03:37:13;6.70;77.10
49549;DHT22;35450;44.518;7.466;2024-03-07T03:40:17;6.70;76.30
49549;DHT22;35450;44.518;7.466;2024-03-07T03:43:21;6.80;75.60
49549;DHT22;35450;44.518;7.466;2024-03-07T03:46:25;7.00;75.80
49549;DHT22;35450;44.518;7.466;2024-03-07T03:49:29;6.90;77.30
49549;DHT22;35450;44.518;7.466;2024-03-07T03:52:33;6.80;76.00
49549;DHT22;35450;44.518;7.466;2024-03-07T03:55:38;6.60;76.40
49549;DHT22;35450;44.518;7.466;2024-03-07T03:58:42;6.60;76.30
49549;DHT22;35450;44.518;7.466;2024-03-07T04:01:47;6.70;75.90
49549;DHT22;35450;44.518;7.466;2024-03-07T04:04:52;6.80;75.60
49549;DHT22;35450;44.518;7.466;2024-03-07T04:07:56;6.70;75.80
49549;DHT22;35450;44.518;7.466;2024-03-07T04:11:00;6.80;75.60
49549;DHT22;35450;44.518;7.466;2024-03-07T04:14:04;6.90;75.90
49549;DHT22;35450;44.518;7.466;2024-03-07T04:17:09;6.80;75.80
49549;DHT22;35450;44.518;7.466;2024-03-07T04:20:16;6.70;76.30
49549;DHT22;35450;44.518;7.466;2024-03-07T04:23:22;6.70;76.60
49549;DHT22;35450;44.518;7.466;2024-03-07T04:26:26;6.70;75.60
49549;DHT22;35450;44.518;7.466;2024-03-07T04:29:31;6.70;76.30
49549;DHT22;35450;44.518;7.466;2024-03-07T04:32:38;6.60;76.40
49549;DHT22;35450;44.518;7.466;2024-03-07T04:35:42;6.50;75.70
49549;DHT22;35450;44.518;7.466;2024-03-07T04:38:46;6.60;76.80
49549;DHT22;35450;44.518;7.466;2024-03-07T04:41:51;6.60;75.70
49549;DHT22;35450;44.518;7.466;2024-03-07T04:44:56;6.60;75.30
49549;DHT22;35450;44.518;7.466;2024-03-07T04:48:00;6.50;76.40
49549;DHT22;35450;44.518;7.466;2024-03-07T04:51:04;6.50;76.50
49549;DHT22;35450;44.518;7.466;2024-03-07T04:54:08;6.50;77.00
49549;DHT22;35450;44.518;7.466;2024-03-07T04:57:12;6.40;77.10
49549;DHT22;35450;44.518;7.466;2024-03-07T05:00:16;6.40;77.30
49549;DHT22;35450;44.518;7.466;2024-03-07T05:03:22;6.30;78.20
49549;DHT22;35450;44.518;7.466;2024-03-07T05:06:26;6.30;77.40
49549;DHT22;35450;44.518;7.466;2024-03-07T05:09:30;6.30;77.60
49549;DHT22;35450;44.518;7.466;2024-03-07T05:12:34;6.20;78.70
49549;DHT22;35450;44.518;7.466;2024-03-07T05:15:38;6.30;78.50
49549;DHT22;35450;44.518;7.466;2024-03-07T05:18:42;6.40;77.00
49549;DHT22;35450;44.518;7.466;2024-03-07T05:21:46;6.20;77.00
49549;DHT22;35450;44.518;7.466;2024-03-07T05:24:51;6.10;77.40
49549;DHT22;35450;44.518;7.466;2024-03-07T05:27:54;6.10;77.90
49549;DHT22;35450;44.518;7.466;2024-03-07T05:30:58;6.10;77.90
49549;DHT22;35450;44.518;7.466;2024-03-07T05:34:05;6.10;76.40
49549;DHT22;35450;44.518;7.466;2024-03-07T05:37:12;6.10;74.90
49549;DHT22;35450;44.518;7.466;2024-03-07T05:40:16;6.20;75.10
49549;DHT22;35450;44.518;7.466;2024-03-07T05:43:21;6.20;75.80
49549;DHT22;35450;44.518;7.466;2024-03-07T05:46:25;6.30;76.10
49549;DHT22;35450;44.518;7.466;2024-03-07T05:49:29;6.10;75.50
49549;DHT22;35450;44.518;7.466;2024-03-07T05:52:34;6.10;75.20
49549;DHT22;35450;44.518;7.466;2024-03-07T05:55:38;6.10;75.80
49549;DHT22;35450;44.518;7.466;2024-03-07T05:58:42;6.10;76.90
49549;DHT22;35450;44.518;7.466;2024-03-07T06:01:46;6.10;76.80
49549;DHT22;35450;44.518;7.466;2024-03-07T06:04:51;6.10;77.00
49549;DHT22;35450;44.518;7.466;2024-03-07T06:07:55;6.10;77.00
49549;DHT22;35450;44.518;7.466;2024-03-07T06:11:00;6.00;77.40
49549;DHT22;35450;44.518;7.466;2024-03-07T06:14:05;6.00;78.30
49549;DHT22;35450;44.518;7.466;2024-03-07T06:17:10;6.10;78.10
49549;DHT22;35450;44.518;7.466;2024-03-07T06:20:14;6.30;78.40
49549;DHT22;35450;44.518;7.466;2024-03-07T06:23:26;6.40;78.30
49549;DHT22;35450;44.518;7.466;2024-03-07T06:26:33;6.50;77.80
49549;DHT22;35450;44.518;7.466;2024-03-07T06:29:43;6.60;77.50
49549;DHT22;35450;44.518;7.466;2024-03-07T06:32:47;6.50;78.20
49549;DHT22;35450;44.518;7.466;2024-03-07T06:35:51;6.50;78.70
49549;DHT22;35450;44.518;7.466;2024-03-07T06:38:55;6.60;79.50
49549;DHT22;35450;44.518;7.466;2024-03-07T06:41:58;6.50;80.90
49549;DHT22;35450;44.518;7.466;2024-03-07T06:45:05;6.80;80.30
49549;DHT22;35450;44.518;7.466;2024-03-07T06:48:10;6.70;81.00
49549;DHT22;35450;44.518;7.466;2024-03-07T06:51:14;6.80;80.80
49549;DHT22;35450;44.518;7.466;2024-03-07T06:54:21;6.90;81.40
49549;DHT22;35450;44.518;7.466;2024-03-07T06:57:25;6.90;81.60
49549;DHT22;35450;44.518;7.466;2024-03-07T07:00:29;6.80;81.70
49549;DHT22;35450;44.518;7.466;2024-03-07T07:03:34;6.80;82.00
49549;DHT22;35450;44.518;7.466;2024-03-07T07:06:39;7.00;80.10
49549;DHT22;35450;44.518;7.466;2024-03-07T07:09:44;7.10;79.60
49549;DHT22;35450;44.518;7.466;2024-03-07T07:12:48;7.30;80.80
49549;DHT22;35450;44.518;7.466;2024-03-07T07:15:52;7.50;81.10
49549;DHT22;35450;44.518;7.466;2024-03-07T07:18:57;7.60;81.50
49549;DHT22;35450;44.518;7.466;2024-03-07T07:22:01;7.70;83.30
49549;DHT22;35450;44.518;7.466;2024-03-07T07:25:06;7.80;83.40
49549;DHT22;35450;44.518;7.466;2024-03-07T07:28:17;7.70;85.80
49549;DHT22;35450;44.518;7.466;2024-03-07T07:31:21;7.70;86.40
49549;DHT22;35450;44.518;7.466;2024-03-07T07:34:25;7.70;84.80
49549;DHT22;35450;44.518;7.466;2024-03-07T07:37:29;7.80;84.40
49549;DHT22;35450;44.518;7.466;2024-03-07T07:40:33;7.80;78.50
49549;DHT22;35450;44.518;7.466;2024-03-07T07:43:40;7.90;78.00
49549;DHT22;35450;44.518;7.466;2024-03-07T07:46:44;7.90;76.60
49549;DHT22;35450;44.518;7.466;2024-03-07T07:49:48;8.00;75.40
49549;DHT22;35450;44.518;7.466;2024-03-07T07:52:56;8.10;74.70
49549;DHT22;35450;44.518;7.466;2024-03-07T07:56:01;8.20;74.20
49549;DHT22;35450;44.518;7.466;2024-03-07T07:59:05;8.30;74.70
49549;DHT22;35450;44.518;7.466;2024-03-07T08:02:09;8.30;74.10
49549;DHT22;35450;44.518;7.466;2024-03-07T08:05:13;8.40;74.40
49549;DHT22;35450;44.518;7.466;2024-03-07T08:08:21;8.40;73.60
49549;DHT22;35450;44.518;7.466;2024-03-07T08:11:25;8.50;73.80
49549;DHT22;35450;44.518;7.466;2024-03-07T08:14:29;8.70;73.50
49549;DHT22;35450;44.518;7.466;2024-03-07T08:17:33;8.60;71.90
49549;DHT22;35450;44.518;7.466;2024-03-07T08:20:38;8.60;71.20
49549;DHT22;35450;44.518;7.466;2024-03-07T08:23:42;8.70;73.00
49549;DHT22;35450;44.518;7.466;2024-03-07T08:26:46;8.70;71.90
49549;DHT22;35450;44.518;7.466;2024-03-07T08:29:53;8.80;72.30
49549;DHT22;35450;44.518;7.466;2024-03-07T08:32:57;8.90;72.60
49549;DHT22;35450;44.518;7.466;2024-03-07T08:36:12;8.90;72.20
49549;DHT22;35450;44.518;7.466;2024-03-07T08:39:16;8.90;72.70
49549;DHT22;35450;44.518;7.466;2024-03-07T08:42:20;8.90;73.60
49549;DHT22;35450;44.518;7.466;2024-03-07T08:45:28;9.00;73.70
49549;DHT22;35450;44.518;7.466;2024-03-07T08:48:32;9.00;74.70
49549;DHT22;35450;44.518;7.466;2024-03-07T08:51:36;9.00;75.90
49549;DHT22;35450;44.518;7.466;2024-03-07T08:54:41;9.00;76.00
49549;DHT22;35450;44.518;7.466;2024-03-07T08:57:46;9.10;75.70
49549;DHT22;35450;44.518;7.466;2024-03-07T09:00:52;9.10;75.90
49549;DHT22;35450;44.518;7.466;2024-03-07T09:03:56;9.10;77.00
49549;DHT22;35450;44.518;7.466;2024-03-07T09:07:03;9.10;77.00
49549;DHT22;35450;44.518;7.466;2024-03-07T09:10:07;9.10;77.10
49549;DHT22;35450;44.518;7.466;2024-03-07T09:13:13;9.00;76.80
49549;DHT22;35450;44.518;7.466;2024-03-07T09:16:17;9.00;77.30
49549;DHT22;35450;44.518;7.466;2024-03-07T09:19:21;9.00;77.70
49549;DHT22;35450;44.518;7.466;2024-03-07T09:22:27;9.10;78.00
49549;DHT22;35450;44.518;7.466;2024-03-07T09:25:33;9.20;78.30
49549;DHT22;35450;44.518;7.466;2024-03-07T09:28:38;9.30;77.80
49549;DHT22;35450;44.518;7.466;2024-03-07T09:31:42;9.30;78.50
49549;DHT22;35450;44.518;7.466;2024-03-07T09:34:46;9.20;78.50
49549;DHT22;35450;44.518;7.466;2024-03-07T09:37:50;9.20;78.90
49549;DHT22;35450;44.518;7.466;2024-03-07T09:40:54;9.30;78.50
49549;DHT22;35450;44.518;7.466;2024-03-07T09:43:59;9.30;78.10
49549;DHT22;35450;44.518;7.466;2024-03-07T09:47:04;9.30;77.90
49549;DHT22;35450;44.518;7.466;2024-03-07T09:50:09;9.40;77.90
49549;DHT22;35450;44.518;7.466;2024-03-07T09:53:15;9.40;77.40
49549;DHT22;35450;44.518;7.466;2024-03-07T09:56:21;9.40;77.20
49549;DHT22;35450;44.518;7.466;2024-03-07T09:59:25;9.50;75.60
49549;DHT22;35450;44.518;7.466;2024-03-07T10:02:32;9.50;74.80
49549;DHT22;35450;44.518;7.466;2024-03-07T10:05:38;9.60;74.30
49549;DHT22;35450;44.518;7.466;2024-03-07T10:08:43;9.50;74.80
49549;DHT22;35450;44.518;7.466;2024-03-07T10:11:58;9.70;75.40
49549;DHT22;35450;44.518;7.466;2024-03-07T10:15:03;9.70;74.90
49549;DHT22;35450;44.518;7.466;2024-03-07T10:18:09;9.70;73.30
49549;DHT22;35450;44.518;7.466;2024-03-07T10:21:20;9.70;73.20
49549;DHT22;35450;44.518;7.466;2024-03-07T10:24:25;9.70;73.70
49549;DHT22;35450;44.518;7.466;2024-03-07T10:27:29;9.70;73.20
49549;DHT22;35450;44.518;7.466;2024-03-07T10:30:43;9.80;73.70
49549;DHT22;35450;44.518;7.466;2024-03-07T10:34:00;9.90;72.30
49549;DHT22;35450;44.518;7.466;2024-03-07T10:37:06;9.90;74.30
49549;DHT22;35450;44.518;7.466;2024-03-07T10:40:13;9.90;75.70
49549;DHT22;35450;44.518;7.466;2024-03-07T10:43:22;10.00;77.20
49549;DHT22;35450;44.518;7.466;2024-03-07T10:46:26;10.00;75.30
49549;DHT22;35450;44.518;7.466;2024-03-07T10:49:34;10.10;73.40
49549;DHT22;35450;44.518;7.466;2024-03-07T10:59:16;10.00;74.80
49549;DHT22;35450;44.518;7.466;2024-03-07T11:02:35;10.10;75.00
49549;DHT22;35450;44.518;7.466;2024-03-07T11:05:41;10.10;74.20
49549;DHT22;35450;44.518;7.466;2024-03-07T11:08:47;10.20;74.50
49549;DHT22;35450;44.518;7.466;2024-03-07T11:11:51;10.20;74.60
49549;DHT22;35450;44.518;7.466;2024-03-07T11:14:57;10.30;75.00
49549;DHT22;35450;44.518;7.466;2024-03-07T11:18:01;10.20;75.60
49549;DHT22;35450;44.518;7.466;2024-03-07T11:21:05;10.30;77.50
49549;DHT22;35450;44.518;7.466;2024-03-07T11:24:26;10.30;76.10
49549;DHT22;35450;44.518;7.466;2024-03-07T11:27:33;10.40;75.70
49549;DHT22;35450;44.518;7.466;2024-03-07T11:30:40;10.40;75.80
49549;DHT22;35450;44.518;7.466;2024-03-07T11:34:11;10.50;76.70
49549;DHT22;35450;44.518;7.466;2024-03-07T11:37:41;10.50;76.80
49549;DHT22;35450;44.518;7.466;2024-03-07T11:40:52;10.50;76.50
49549;DHT22;35450;44.518;7.466;2024-03-07T11:43:56;10.50;75.90
49549;DHT22;35450;44.518;7.466;2024-03-07T11:47:01;10.60;76.70
49549;DHT22;35450;44.518;7.466;2024-03-07T11:50:12;10.60;77.90
49549;DHT22;35450;44.518;7.466;2024-03-07T11:53:17;10.70;76.10
49549;DHT22;35450;44.518;7.466;2024-03-07T11:56:21;10.80;76.60
49549;DHT22;35450;44.518;7.466;2024-03-07T11:59:25;10.80;76.40
49549;DHT22;35450;44.518;7.466;2024-03-07T12:02:37;10.80;76.30
49549;DHT22;35450;44.518;7.466;2024-03-07T12:05:41;10.80;74.60
49549;DHT22;35450;44.518;7.466;2024-03-07T12:08:45;10.90;74.70
49549;DHT22;35450;44.518;7.466;2024-03-07T12:11:50;10.90;75.70
49549;DHT22;35450;44.518;7.466;2024-03-07T12:14:57;10.90;76.80
49549;DHT22;35450;44.518;7.466;2024-03-07T12:18:03;11.00;75.70
49549;DHT22;35450;44.518;7.466;2024-03-07T12:21:07;11.00;75.00
49549;DHT22;35450;44.518;7.466;2024-03-07T12:24:13;11.10;76.00
49549;DHT22;35450;44.518;7.466;2024-03-07T12:27:17;11.10;73.80
49549;DHT22;35450;44.518;7.466;2024-03-07T12:30:21;11.10;72.80
49549;DHT22;35450;44.518;7.466;2024-03-07T12:33:31;11.10;71.60
49549;DHT22;35450;44.518;7.466;2024-03-07T12:36:42;11.10;74.20
49549;DHT22;35450;44.518;7.466;2024-03-07T12:39:49;11.20;75.40
49549;DHT22;35450;44.518;7.466;2024-03-07T12:43:13;11.20;75.80
49549;DHT22;35450;44.518;7.466;2024-03-07T12:46:18;11.20;72.80
49549;DHT22;35450;44.518;7.466;2024-03-07T12:49:22;11.20;72.00
49549;DHT22;35450;44.518;7.466;2024-03-07T12:52:31;11.30;74.00
49549;DHT22;35450;44.518;7.466;2024-03-07T12:55:36;11.30;73.10
49549;DHT22;35450;44.518;7.466;2024-03-07T12:58:40;11.30;72.80
49549;DHT22;35450;44.518;7.466;2024-03-07T13:01:44;11.40;71.30
49549;DHT22;35450;44.518;7.466;2024-03-07T13:04:51;11.40;73.30
49549;DHT22;35450;44.518;7.466;2024-03-07T13:07:55;11.40;72.00
49549;DHT22;35450;44.518;7.466;2024-03-07T13:10:59;11.40;73.00
49549;DHT22;35450;44.518;7.466;2024-03-07T13:14:03;11.40;70.90
49549;DHT22;35450;44.518;7.466;2024-03-07T13:17:08;11.50;71.20
49549;DHT22;35450;44.518;7.466;2024-03-07T13:20:12;11.50;69.90
49549;DHT22;35450;44.518;7.466;2024-03-07T13:23:16;11.60;70.80
49549;DHT22;35450;44.518;7.466;2024-03-07T13:26:22;11.60;69.40
49549;DHT22;35450;44.518;7.466;2024-03-07T13:29:28;11.60;69.30
49549;DHT22;35450;44.518;7.466;2024-03-07T13:32:32;11.70;69.60
49549;DHT22;35450;44.518;7.466;2024-03-07T13:35:38;11.70;71.20
49549;DHT22;35450;44.518;7.466;2024-03-07T13:38:43;11.80;69.30
49549;DHT22;35450;44.518;7.466;2024-03-07T13:41:47;11.80;69.30
49549;DHT22;35450;44.518;7.466;2024-03-07T13:44:52;11.80;70.10
49549;DHT22;35450;44.518;7.466;2024-03-07T13:47:56;11.90;69.80
49549;DHT22;35450;44.518;7.466;2024-03-07T13:51:02;11.90;69.60
49549;DHT22;35450;44.518;7.466;2024-03-07T13:54:11;11.90;70.00
49549;DHT22;35450;44.518;7.466;2024-03-07T13:57:46;11.90;70.30
49549;DHT22;35450;44.518;7.466;2024-03-07T14:01:01;12.00;69.40
49549;DHT22;35450;44.518;7.466;2024-03-07T14:08:26;12.00;69.60
49549;DHT22;35450;44.518;7.466;2024-03-07T14:23:06;12.20;70.30
49549;DHT22;35450;44.518;7.466;2024-03-07T14:33:08;12.30;68.00
49549;DHT22;35450;44.518;7.466;2024-03-07T14:36:14;12.30;67.90
49549;DHT22;35450;44.518;7.466;2024-03-07T14:39:19;12.40;70.40
49549;DHT22;35450;44.518;7.466;2024-03-07T14:42:27;12.40;69.30
49549;DHT22;35450;44.518;7.466;2024-03-07T14:45:36;12.50;68.80
49549;DHT22;35450;44.518;7.466;2024-03-07T14:48:40;12.50;68.80
49549;DHT22;35450;44.518;7.466;2024-03-07T14:51:46;12.60;68.00
49549;DHT22;35450;44.518;7.466;2024-03-07T14:54:51;12.60;68.90
49549;DHT22;35450;44.518;7.466;2024-03-07T14:57:55;12.70;68.20
49549;DHT22;35450;44.518;7.466;2024-03-07T15:00:58;12.80;67.40
49549;DHT22;35450;44.518;7.466;2024-03-07T15:04:03;12.80;67.90
49549;DHT22;35450;44.518;7.466;2024-03-07T15:07:10;12.90;68.10
49549;DHT22;35450;44.518;7.466;2024-03-07T15:10:33;12.80;67.60
49549;DHT22;35450;44.518;7.466;2024-03-07T15:13:38;12.70;67.40
49549;DHT22;35450;44.518;7.466;2024-03-07T15:16:42;12.80;69.10
49549;DHT22;35450;44.518;7.466;2024-03-07T15:19:46;12.90;69.40
49549;DHT22;35450;44.518;7.466;2024-03-07T15:22:58;12.90;67.20
49549;DHT22;35450;44.518;7.466;2024-03-07T15:26:03;13.10;67.20
49549;DHT22;35450;44.518;7.466;2024-03-07T15:29:08;13.10;68.40
49549;DHT22;35450;44.518;7.466;2024-03-07T15:32:12;13.10;69.60
49549;DHT22;35450;44.518;7.466;2024-03-07T15:35:18;13.10;67.70
49549;DHT22;35450;44.518;7.466;2024-03-07T15:38:22;13.20;66.80
49549;DHT22;35450;44.518;7.466;2024-03-07T15:41:26;13.30;66.20
49549;DHT22;35450;44.518;7.466;2024-03-07T15:44:30;13.40;65.70
49549;DHT22;35450;44.518;7.466;2024-03-07T15:47:34;13.50;64.40
49549;DHT22;35450;44.518;7.466;2024-03-07T15:50:44;13.50;64.00
49549;DHT22;35450;44.518;7.466;2024-03-07T15:53:48;13.40;63.60
49549;DHT22;35450;44.518;7.466;2024-03-07T15:56:52;13.50;63.90
49549;DHT22;35450;44.518;7.466;2024-03-07T15:59:56;13.60;64.40
49549;DHT22;35450;44.518;7.466;2024-03-07T16:03:02;13.60;64.20
49549;DHT22;35450;44.518;7.466;2024-03-07T16:06:07;13.70;63.60
49549;DHT22;35450;44.518;7.466;2024-03-07T16:09:11;13.80;62.70
49549;DHT22;35450;44.518;7.466;2024-03-07T16:12:17;13.70;62.70
49549;DHT22;35450;44.518;7.466;2024-03-07T16:15:21;13.70;63.90
49549;DHT22;35450;44.518;7.466;2024-03-07T16:18:26;13.70;63.00
49549;DHT22;35450;44.518;7.466;2024-03-07T16:21:30;13.80;62.70
49549;DHT22;35450;44.518;7.466;2024-03-07T16:24:34;13.90;62.30
49549;DHT22;35450;44.518;7.466;2024-03-07T16:27:42;13.80;67.30
49549;DHT22;35450;44.518;7.466;2024-03-07T16:30:46;13.60;66.20
49549;DHT22;35450;44.518;7.466;2024-03-07T16:33:51;13.40;66.00
49549;DHT22;35450;44.518;7.466;2024-03-07T16:36:55;13.20;66.00
49549;DHT22;35450;44.518;7.466;2024-03-07T16:40:00;13.10;66.60
49549;DHT22;35450;44.518;7.466;2024-03-07T16:43:04;13.00;67.20
49549;DHT22;35450;44.518;7.466;2024-03-07T16:46:11;12.80;67.30
49549;DHT22;35450;44.518;7.466;2024-03-07T16:49:15;12.70;67.80
49549;DHT22;35450;44.518;7.466;2024-03-07T16:52:19;12.60;68.50
49549;DHT22;35450;44.518;7.466;2024-03-07T16:55:28;12.50;69.40
49549;DHT22;35450;44.518;7.466;2024-03-07T16:58:33;12.40;71.00
49549;DHT22;35450;44.518;7.466;2024-03-07T17:01:40;12.30;70.30
49549;DHT22;35450;44.518;7.466;2024-03-07T17:04:48;12.30;71.80
49549;DHT22;35450;44.518;7.466;2024-03-07T17:07:52;12.20;73.70
49549;DHT22;35450;44.518;7.466;2024-03-07T17:10:56;12.10;75.50
49549;DHT22;35450;44.518;7.466;2024-03-07T17:14:01;12.00;76.50
49549;DHT22;35450;44.518;7.466;2024-03-07T17:17:05;11.90;75.50
49549;DHT22;35450;44.518;7.466;2024-03-07T17:20:10;11.80;75.70
49549;DHT22;35450;44.518;7.466;2024-03-07T17:23:15;11.80;75.30
49549;DHT22;35450;44.518;7.466;2024-03-07T17:26:20;11.70;74.60
49549;DHT22;35450;44.518;7.466;2024-03-07T17:29:24;11.60;76.10
49549;DHT22;35450;44.518;7.466;2024-03-07T17:32:28;11.60;76.00
49549;DHT22;35450;44.518;7.466;2024-03-07T17:35:32;11.50;76.20
49549;DHT22;35450;44.518;7.466;2024-03-07T17:38:38;11.50;75.60
49549;DHT22;35450;44.518;7.466;2024-03-07T17:41:42;11.40;75.10
49549;DHT22;35450;44.518;7.466;2024-03-07T17:44:46;11.40;76.10
49549;DHT22;35450;44.518;7.466;2024-03-07T17:47:51;11.40;76.50
49549;DHT22;35450;44.518;7.466;2024-03-07T17:50:58;11.20;76.80
49549;DHT22;35450;44.518;7.466;2024-03-07T17:54:05;11.20;76.60
49549;DHT22;35450;44.518;7.466;2024-03-07T17:57:10;11.10;77.70
49549;DHT22;35450;44.518;7.466;2024-03-07T18:00:17;11.10;76.90
49549;DHT22;35450;44.518;7.466;2024-03-07T18:03:30;11.00;76.20
49549;DHT22;35450;44.518;7.466;2024-03-07T18:06:34;11.00;76.40
49549;DHT22;35450;44.518;7.466;2024-03-07T18:09:39;11.00;76.70
49549;DHT22;35450;44.518;7.466;2024-03-07T18:12:48;10.90;77.50
49549;DHT22;35450;44.518;7.466;2024-03-07T18:15:57;10.90;77.30
49549;DHT22;35450;44.518;7.466;2024-03-07T18:19:02;10.80;77.30
49549;DHT22;35450;44.518;7.466;2024-03-07T18:22:06;10.80;77.90
49549;DHT22;35450;44.518;7.466;2024-03-07T18:25:10;10.70;77.60
49549;DHT22;35450;44.518;7.466;2024-03-07T18:28:14;10.60;77.70
49549;DHT22;35450;44.518;7.466;2024-03-07T18:31:19;10.60;77.60
49549;DHT22;35450;44.518;7.466;2024-03-07T18:34:31;10.50;77.80
49549;DHT22;35450;44.518;7.466;2024-03-07T18:37:34;10.40;78.40
49549;DHT22;35450;44.518;7.466;2024-03-07T18:40:38;10.30;78.40
49549;DHT22;35450;44.518;7.466;2024-03-07T18:43:42;10.20;78.40
49549;DHT22;35450;44.518;7.466;2024-03-07T18:46:46;10.20;78.30
49549;DHT22;35450;44.518;7.466;2024-03-07T18:49:51;10.20;78.60
49549;DHT22;35450;44.518;7.466;2024-03-07T18:52:57;10.20;79.00
49549;DHT22;35450;44.518;7.466;2024-03-07T18:56:01;10.20;79.60
49549;DHT22;35450;44.518;7.466;2024-03-07T18:59:13;10.20;79.30
49549;DHT22;35450;44.518;7.466;2024-03-07T19:02:19;10.30;79.20
49549;DHT22;35450;44.518;7.466;2024-03-07T19:05:27;10.40;79.00
49549;DHT22;35450;44.518;7.466;2024-03-07T19:08:32;10.40;79.00
49549;DHT22;35450;44.518;7.466;2024-03-07T19:11:37;10.40;79.90
49549;DHT22;35450;44.518;7.466;2024-03-07T19:14:44;10.50;81.00
49549;DHT22;35450;44.518;7.466;2024-03-07T19:17:48;10.50;80.70
49549;DHT22;35450;44.518;7.466;2024-03-07T19:20:55;10.40;82.50
49549;DHT22;35450;44.518;7.466;2024-03-07T19:23:59;10.40;82.80
49549;DHT22;35450;44.518;7.466;2024-03-07T19:27:04;10.50;82.80
49549;DHT22;35450;44.518;7.466;2024-03-07T19:30:18;10.40;82.40
49549;DHT22;35450;44.518;7.466;2024-03-07T19:33:22;10.30;81.90
49549;DHT22;35450;44.518;7.466;2024-03-07T19:36:29;10.20;82.40
49549;DHT22;35450;44.518;7.466;2024-03-07T19:39:33;9.90;83.10
49549;DHT22;35450;44.518;7.466;2024-03-07T19:42:38;9.50;84.30
49549;DHT22;35450;44.518;7.466;2024-03-07T19:45:42;9.50;84.20
49549;DHT22;35450;44.518;7.466;2024-03-07T19:48:48;9.50;84.50
49549;DHT22;35450;44.518;7.466;2024-03-07T19:51:52;9.60;83.50
49549;DHT22;35450;44.518;7.466;2024-03-07T19:54:56;9.70;82.70
49549;DHT22;35450;44.518;7.466;2024-03-07T19:58:00;9.70;83.70
49549;DHT22;35450;44.518;7.466;2024-03-07T20:01:06;9.50;83.50
49549;DHT22;35450;44.518;7.466;2024-03-07T20:04:15;9.60;82.90
49549;DHT22;35450;44.518;7.466;2024-03-07T20:07:20;9.60;82.40
49549;DHT22;35450;44.518;7.466;2024-03-07T20:10:26;9.50;82.40
49549;DHT22;35450;44.518;7.466;2024-03-07T20:13:34;9.50;82.20